sensor_id;sensor_type;location;lat;lon;timestamp;temperature;humidity
25450;DHT22;13371;52.080;5.624;2022-11-30T00:00:55;12.50;98.70
25450;DHT22;13371;52.080;5.624;2022-11-30T00:03:21;12.50;98.70
25450;DHT22;13371;52.080;5.624;2022-11-30T00:05:47;12.50;98.60
25450;DHT22;13371;52.080;5.624;2022-11-30T00:08:13;12.50;98.60
25450;DHT22;13371;52.080;5.624;2022-11-30T00:10:40;12.50;98.50
25450;DHT22;13371;52.080;5.624;2022-11-30T00:13:05;12.40;98.50
25450;DHT22;13371;52.080;5.624;2022-11-30T00:15:31;12.50;98.50
25450;DHT22;13371;52.080;5.624;2022-11-30T00:17:57;12.10;98.70
25450;DHT22;13371;52.080;5.624;2022-11-30T00:20:24;12.20;98.90
25450;DHT22;13371;52.080;5.624;2022-11-30T00:22:50;12.10;98.90
25450;DHT22;13371;52.080;5.624;2022-11-30T00:25:15;12.20;98.60
25450;DHT22;13371;52.080;5.624;2022-11-30T00:27:41;12.30;98.40
25450;DHT22;13371;52.080;5.624;2022-11-30T00:30:07;12.30;98.40
25450;DHT22;13371;52.080;5.624;2022-11-30T00:32:33;12.20;98.60
25450;DHT22;13371;52.080;5.624;2022-11-30T00:34:58;12.20;98.60
25450;DHT22;13371;52.080;5.624;2022-11-30T00:37:24;12.10;98.80
25450;DHT22;13371;52.080;5.624;2022-11-30T00:39:50;12.20;98.80
25450;DHT22;13371;52.080;5.624;2022-11-30T00:42:15;12.20;98.50
25450;DHT22;13371;52.080;5.624;2022-11-30T00:44:41;12.30;98.60
25450;DHT22;13371;52.080;5.624;2022-11-30T00:47:07;12.10;98.60
25450;DHT22;13371;52.080;5.624;2022-11-30T00:49:32;12.00;98.70
25450;DHT22;13371;52.080;5.624;2022-11-30T00:51:59;12.00;99.00
25450;DHT22;13371;52.080;5.624;2022-11-30T00:54:24;12.10;98.80
25450;DHT22;13371;52.080;5.624;2022-11-30T00:56:50;12.10;98.70
25450;DHT22;13371;52.080;5.624;2022-11-30T00:59:15;12.10;98.70
25450;DHT22;13371;52.080;5.624;2022-11-30T01:01:41;12.10;98.70
25450;DHT22;13371;52.080;5.624;2022-11-30T01:04:06;12.10;98.60
25450;DHT22;13371;52.080;5.624;2022-11-30T01:06:32;12.10;98.80
25450;DHT22;13371;52.080;5.624;2022-11-30T01:08:58;12.10;98.70
25450;DHT22;13371;52.080;5.624;2022-11-30T01:11:26;12.10;98.70
25450;DHT22;13371;52.080;5.624;2022-11-30T01:13:52;12.00;98.80
25450;DHT22;13371;52.080;5.624;2022-11-30T01:16:22;12.00;98.90
25450;DHT22;13371;52.080;5.624;2022-11-30T01:18:48;11.90;98.80
25450;DHT22;13371;52.080;5.624;2022-11-30T01:21:16;12.00;98.90
25450;DHT22;13371;52.080;5.624;2022-11-30T01:23:43;11.90;98.80
25450;DHT22;13371;52.080;5.624;2022-11-30T01:26:10;12.10;98.80
25450;DHT22;13371;52.080;5.624;2022-11-30T01:28:35;12.10;98.60
25450;DHT22;13371;52.080;5.624;2022-11-30T01:31:04;11.90;98.70
25450;DHT22;13371;52.080;5.624;2022-11-30T01:33:30;12.10;98.70
25450;DHT22;13371;52.080;5.624;2022-11-30T01:36:13;12.10;98.60
25450;DHT22;13371;52.080;5.624;2022-11-30T01:38:41;12.10;98.50
25450;DHT22;13371;52.080;5.624;2022-11-30T01:41:08;12.10;98.60
25450;DHT22;13371;52.080;5.624;2022-11-30T01:43:45;12.10;98.60
25450;DHT22;13371;52.080;5.624;2022-11-30T01:51:48;12.10;98.60
25450;DHT22;13371;52.080;5.624;2022-11-30T01:54:19;12.10;98.60
25450;DHT22;13371;52.080;5.624;2022-11-30T01:56:49;12.10;98.50
25450;DHT22;13371;52.080;5.624;2022-11-30T01:59:17;12.10;98.50
25450;DHT22;13371;52.080;5.624;2022-11-30T02:01:43;12.10;98.50
25450;DHT22;13371;52.080;5.624;2022-11-30T02:04:38;12.10;98.50
25450;DHT22;13371;52.080;5.624;2022-11-30T02:07:06;12.10;98.50
25450;DHT22;13371;52.080;5.624;2022-11-30T02:09:39;12.10;98.60
25450;DHT22;13371;52.080;5.624;2022-11-30T02:12:07;12.10;98.50
25450;DHT22;13371;52.080;5.624;2022-11-30T02:14:41;12.10;98.50
25450;DHT22;13371;52.080;5.624;2022-11-30T02:17:27;12.10;98.40
25450;DHT22;13371;52.080;5.624;2022-11-30T02:31:13;11.90;98.50
25450;DHT22;13371;52.080;5.624;2022-11-30T02:33:41;11.90;98.50
25450;DHT22;13371;52.080;5.624;2022-11-30T02:36:08;11.90;98.50
25450;DHT22;13371;52.080;5.624;2022-11-30T02:38:34;11.90;98.60
25450;DHT22;13371;52.080;5.624;2022-11-30T02:41:00;11.80;98.60
25450;DHT22;13371;52.080;5.624;2022-11-30T02:43:27;11.90;98.60
25450;DHT22;13371;52.080;5.624;2022-11-30T02:46:12;11.90;98.60
25450;DHT22;13371;52.080;5.624;2022-11-30T02:48:58;11.90;98.50
25450;DHT22;13371;52.080;5.624;2022-11-30T02:51:27;12.00;98.50
25450;DHT22;13371;52.080;5.624;2022-11-30T02:53:54;11.90;98.30
25450;DHT22;13371;52.080;5.624;2022-11-30T02:56:20;11.60;98.80
25450;DHT22;13371;52.080;5.624;2022-11-30T02:58:46;11.60;98.80
25450;DHT22;13371;52.080;5.624;2022-11-30T03:01:12;11.60;98.90
25450;DHT22;13371;52.080;5.624;2022-11-30T03:03:38;11.70;98.70
25450;DHT22;13371;52.080;5.624;2022-11-30T03:06:04;11.70;98.80
25450;DHT22;13371;52.080;5.624;2022-11-30T03:08:30;11.60;98.70
25450;DHT22;13371;52.080;5.624;2022-11-30T03:10:55;11.50;98.90
25450;DHT22;13371;52.080;5.624;2022-11-30T03:13:21;11.60;98.70
25450;DHT22;13371;52.080;5.624;2022-11-30T03:15:46;11.50;98.80
25450;DHT22;13371;52.080;5.624;2022-11-30T03:18:12;11.70;98.60
25450;DHT22;13371;52.080;5.624;2022-11-30T03:20:42;11.70;98.70
25450;DHT22;13371;52.080;5.624;2022-11-30T03:23:08;11.70;98.60
25450;DHT22;13371;52.080;5.624;2022-11-30T03:25:33;11.60;98.60
25450;DHT22;13371;52.080;5.624;2022-11-30T03:28:00;11.60;98.60
25450;DHT22;13371;52.080;5.624;2022-11-30T03:30:26;11.60;98.70
25450;DHT22;13371;52.080;5.624;2022-11-30T03:32:51;11.50;98.60
25450;DHT22;13371;52.080;5.624;2022-11-30T03:35:17;11.40;98.90
25450;DHT22;13371;52.080;5.624;2022-11-30T03:37:43;11.50;98.70
25450;DHT22;13371;52.080;5.624;2022-11-30T03:40:09;11.40;99.10
25450;DHT22;13371;52.080;5.624;2022-11-30T03:42:36;11.40;98.90
25450;DHT22;13371;52.080;5.624;2022-11-30T03:45:01;11.50;98.90
25450;DHT22;13371;52.080;5.624;2022-11-30T03:47:27;11.40;98.90
25450;DHT22;13371;52.080;5.624;2022-11-30T03:49:53;11.50;98.80
25450;DHT22;13371;52.080;5.624;2022-11-30T03:52:18;11.60;98.80
25450;DHT22;13371;52.080;5.624;2022-11-30T03:54:44;11.70;99.10
25450;DHT22;13371;52.080;5.624;2022-11-30T03:57:09;11.50;98.60
25450;DHT22;13371;52.080;5.624;2022-11-30T03:59:35;11.50;98.80
25450;DHT22;13371;52.080;5.624;2022-11-30T04:02:00;11.50;98.90
25450;DHT22;13371;52.080;5.624;2022-11-30T04:04:26;11.60;99.20
25450;DHT22;13371;52.080;5.624;2022-11-30T04:06:51;11.60;98.80
25450;DHT22;13371;52.080;5.624;2022-11-30T04:09:17;11.60;98.70
25450;DHT22;13371;52.080;5.624;2022-11-30T04:11:43;11.60;99.00
25450;DHT22;13371;52.080;5.624;2022-11-30T04:14:08;11.60;98.60
25450;DHT22;13371;52.080;5.624;2022-11-30T04:16:34;11.60;98.60
25450;DHT22;13371;52.080;5.624;2022-11-30T04:19:00;11.60;98.60
25450;DHT22;13371;52.080;5.624;2022-11-30T04:21:26;11.60;98.70
25450;DHT22;13371;52.080;5.624;2022-11-30T04:23:52;11.60;98.50
25450;DHT22;13371;52.080;5.624;2022-11-30T04:26:17;11.60;98.40
25450;DHT22;13371;52.080;5.624;2022-11-30T04:28:43;11.50;98.60
25450;DHT22;13371;52.080;5.624;2022-11-30T04:31:09;11.50;98.70
25450;DHT22;13371;52.080;5.624;2022-11-30T04:33:35;11.50;98.80
25450;DHT22;13371;52.080;5.624;2022-11-30T04:36:03;11.60;98.50
25450;DHT22;13371;52.080;5.624;2022-11-30T04:38:30;11.60;98.50
25450;DHT22;13371;52.080;5.624;2022-11-30T04:40:55;11.60;98.60
25450;DHT22;13371;52.080;5.624;2022-11-30T04:43:22;11.30;98.70
25450;DHT22;13371;52.080;5.624;2022-11-30T04:45:48;11.10;99.10
25450;DHT22;13371;52.080;5.624;2022-11-30T04:48:14;11.20;99.00
25450;DHT22;13371;52.080;5.624;2022-11-30T04:50:40;11.20;99.00
25450;DHT22;13371;52.080;5.624;2022-11-30T04:53:06;11.40;98.80
25450;DHT22;13371;52.080;5.624;2022-11-30T04:55:32;11.30;98.70
25450;DHT22;13371;52.080;5.624;2022-11-30T04:57:58;11.40;98.70
25450;DHT22;13371;52.080;5.624;2022-11-30T05:00:23;11.40;98.70
25450;DHT22;13371;52.080;5.624;2022-11-30T05:02:49;11.30;98.50
25450;DHT22;13371;52.080;5.624;2022-11-30T05:05:15;11.40;98.50
25450;DHT22;13371;52.080;5.624;2022-11-30T05:07:41;11.50;98.10
25450;DHT22;13371;52.080;5.624;2022-11-30T05:10:07;11.40;98.30
25450;DHT22;13371;52.080;5.624;2022-11-30T05:12:33;11.30;98.30
25450;DHT22;13371;52.080;5.624;2022-11-30T05:14:59;11.20;98.30
25450;DHT22;13371;52.080;5.624;2022-11-30T05:17:24;11.20;98.30
25450;DHT22;13371;52.080;5.624;2022-11-30T05:19:50;11.20;98.30
25450;DHT22;13371;52.080;5.624;2022-11-30T05:22:16;11.20;98.20
25450;DHT22;13371;52.080;5.624;2022-11-30T05:24:41;11.10;98.00
25450;DHT22;13371;52.080;5.624;2022-11-30T05:27:07;10.90;98.40
25450;DHT22;13371;52.080;5.624;2022-11-30T05:29:32;10.90;98.30
25450;DHT22;13371;52.080;5.624;2022-11-30T05:32:00;10.90;98.60
25450;DHT22;13371;52.080;5.624;2022-11-30T05:34:26;10.70;98.20
25450;DHT22;13371;52.080;5.624;2022-11-30T05:36:52;10.70;98.40
25450;DHT22;13371;52.080;5.624;2022-11-30T05:39:17;10.70;98.40
25450;DHT22;13371;52.080;5.624;2022-11-30T05:41:43;10.70;98.40
25450;DHT22;13371;52.080;5.624;2022-11-30T05:44:08;10.70;98.40
25450;DHT22;13371;52.080;5.624;2022-11-30T05:46:34;10.80;98.30
25450;DHT22;13371;52.080;5.624;2022-11-30T05:49:00;10.80;98.20
25450;DHT22;13371;52.080;5.624;2022-11-30T05:51:26;10.70;98.20
25450;DHT22;13371;52.080;5.624;2022-11-30T05:53:52;10.70;98.10
25450;DHT22;13371;52.080;5.624;2022-11-30T05:56:19;10.70;98.10
25450;DHT22;13371;52.080;5.624;2022-11-30T05:58:46;10.70;98.10
25450;DHT22;13371;52.080;5.624;2022-11-30T06:01:26;10.60;97.90
25450;DHT22;13371;52.080;5.624;2022-11-30T06:03:53;10.60;98.00
25450;DHT22;13371;52.080;5.624;2022-11-30T06:06:19;10.50;97.90
25450;DHT22;13371;52.080;5.624;2022-11-30T06:08:46;10.50;97.90
25450;DHT22;13371;52.080;5.624;2022-11-30T06:11:13;10.60;97.60
25450;DHT22;13371;52.080;5.624;2022-11-30T06:13:39;10.10;97.60
25450;DHT22;13371;52.080;5.624;2022-11-30T06:16:05;10.10;97.70
25450;DHT22;13371;52.080;5.624;2022-11-30T06:18:31;10.10;97.90
25450;DHT22;13371;52.080;5.624;2022-11-30T06:21:02;10.00;98.00
25450;DHT22;13371;52.080;5.624;2022-11-30T06:23:28;10.00;98.00
25450;DHT22;13371;52.080;5.624;2022-11-30T06:25:54;9.90;97.90
25450;DHT22;13371;52.080;5.624;2022-11-30T06:28:23;9.90;98.30
25450;DHT22;13371;52.080;5.624;2022-11-30T06:30:49;10.00;98.10
25450;DHT22;13371;52.080;5.624;2022-11-30T06:33:16;9.90;97.50
25450;DHT22;13371;52.080;5.624;2022-11-30T06:35:45;9.80;97.50
25450;DHT22;13371;52.080;5.624;2022-11-30T06:38:11;9.60;97.80
25450;DHT22;13371;52.080;5.624;2022-11-30T06:40:37;9.60;97.70
25450;DHT22;13371;52.080;5.624;2022-11-30T06:43:02;9.60;97.70
25450;DHT22;13371;52.080;5.624;2022-11-30T06:45:28;9.60;97.70
25450;DHT22;13371;52.080;5.624;2022-11-30T06:47:54;9.50;97.40
25450;DHT22;13371;52.080;5.624;2022-11-30T06:50:21;9.50;97.50
25450;DHT22;13371;52.080;5.624;2022-11-30T06:52:46;9.50;97.60
25450;DHT22;13371;52.080;5.624;2022-11-30T06:55:12;9.40;97.50
25450;DHT22;13371;52.080;5.624;2022-11-30T06:57:38;9.40;97.40
25450;DHT22;13371;52.080;5.624;2022-11-30T07:00:04;9.20;97.50
25450;DHT22;13371;52.080;5.624;2022-11-30T07:02:30;9.20;97.80
25450;DHT22;13371;52.080;5.624;2022-11-30T07:04:55;9.20;97.70
25450;DHT22;13371;52.080;5.624;2022-11-30T07:07:21;9.10;97.70
25450;DHT22;13371;52.080;5.624;2022-11-30T07:09:46;9.20;97.70
25450;DHT22;13371;52.080;5.624;2022-11-30T07:12:12;9.10;98.00
25450;DHT22;13371;52.080;5.624;2022-11-30T07:14:37;9.00;97.60
25450;DHT22;13371;52.080;5.624;2022-11-30T07:17:03;8.90;97.80
25450;DHT22;13371;52.080;5.624;2022-11-30T07:19:30;9.00;97.50
25450;DHT22;13371;52.080;5.624;2022-11-30T07:21:55;9.00;97.40
25450;DHT22;13371;52.080;5.624;2022-11-30T07:24:21;9.00;97.30
25450;DHT22;13371;52.080;5.624;2022-11-30T07:27:06;8.80;97.60
25450;DHT22;13371;52.080;5.624;2022-11-30T07:29:31;8.80;97.80
25450;DHT22;13371;52.080;5.624;2022-11-30T07:31:57;8.80;97.70
25450;DHT22;13371;52.080;5.624;2022-11-30T07:34:22;8.60;97.80
25450;DHT22;13371;52.080;5.624;2022-11-30T07:36:51;8.70;97.80
25450;DHT22;13371;52.080;5.624;2022-11-30T07:39:16;8.70;97.60
25450;DHT22;13371;52.080;5.624;2022-11-30T07:41:42;8.70;97.80
25450;DHT22;13371;52.080;5.624;2022-11-30T07:44:08;8.70;97.80
25450;DHT22;13371;52.080;5.624;2022-11-30T07:46:35;8.60;97.80
25450;DHT22;13371;52.080;5.624;2022-11-30T07:49:05;8.60;97.90
25450;DHT22;13371;52.080;5.624;2022-11-30T07:51:31;8.60;98.00
25450;DHT22;13371;52.080;5.624;2022-11-30T07:53:57;8.60;98.00
25450;DHT22;13371;52.080;5.624;2022-11-30T07:56:24;8.50;98.10
25450;DHT22;13371;52.080;5.624;2022-11-30T07:58:52;8.60;98.20
25450;DHT22;13371;52.080;5.624;2022-11-30T08:01:20;8.70;98.60
25450;DHT22;13371;52.080;5.624;2022-11-30T08:03:46;8.70;98.30
25450;DHT22;13371;52.080;5.624;2022-11-30T08:06:14;8.70;98.30
25450;DHT22;13371;52.080;5.624;2022-11-30T08:08:42;8.80;98.10
25450;DHT22;13371;52.080;5.624;2022-11-30T08:11:11;8.90;98.20
25450;DHT22;13371;52.080;5.624;2022-11-30T08:13:37;8.90;98.30
25450;DHT22;13371;52.080;5.624;2022-11-30T08:16:09;8.90;98.40
25450;DHT22;13371;52.080;5.624;2022-11-30T08:18:35;8.90;98.70
25450;DHT22;13371;52.080;5.624;2022-11-30T08:21:03;8.90;98.80
25450;DHT22;13371;52.080;5.624;2022-11-30T08:23:34;8.70;99.40
25450;DHT22;13371;52.080;5.624;2022-11-30T08:26:28;8.90;99.40
25450;DHT22;13371;52.080;5.624;2022-11-30T08:28:55;9.20;99.80
25450;DHT22;13371;52.080;5.624;2022-11-30T08:31:24;9.00;99.50
25450;DHT22;13371;52.080;5.624;2022-11-30T08:34:14;9.00;99.90
25450;DHT22;13371;52.080;5.624;2022-11-30T08:36:39;8.70;99.90
25450;DHT22;13371;52.080;5.624;2022-11-30T08:39:07;8.90;99.90
25450;DHT22;13371;52.080;5.624;2022-11-30T08:41:34;9.20;99.90
25450;DHT22;13371;52.080;5.624;2022-11-30T08:44:00;9.20;99.90
25450;DHT22;13371;52.080;5.624;2022-11-30T08:46:26;9.00;99.90
25450;DHT22;13371;52.080;5.624;2022-11-30T08:48:52;9.00;99.90
25450;DHT22;13371;52.080;5.624;2022-11-30T08:51:19;9.20;99.90
25450;DHT22;13371;52.080;5.624;2022-11-30T08:53:46;9.40;99.90
25450;DHT22;13371;52.080;5.624;2022-11-30T08:56:15;9.10;99.90
25450;DHT22;13371;52.080;5.624;2022-11-30T08:58:41;8.80;99.90
25450;DHT22;13371;52.080;5.624;2022-11-30T09:01:15;8.50;99.90
25450;DHT22;13371;52.080;5.624;2022-11-30T09:03:41;8.30;99.90
25450;DHT22;13371;52.080;5.624;2022-11-30T09:06:13;8.50;99.90
25450;DHT22;13371;52.080;5.624;2022-11-30T09:08:40;8.40;99.90
25450;DHT22;13371;52.080;5.624;2022-11-30T09:11:39;8.40;99.90
25450;DHT22;13371;52.080;5.624;2022-11-30T09:14:04;8.90;99.90
25450;DHT22;13371;52.080;5.624;2022-11-30T09:16:31;9.30;99.90
25450;DHT22;13371;52.080;5.624;2022-11-30T09:18:56;9.10;99.90
25450;DHT22;13371;52.080;5.624;2022-11-30T09:21:23;9.10;99.90
25450;DHT22;13371;52.080;5.624;2022-11-30T09:23:49;8.90;99.90
25450;DHT22;13371;52.080;5.624;2022-11-30T09:26:17;8.90;99.90
25450;DHT22;13371;52.080;5.624;2022-11-30T09:28:44;9.10;99.90
25450;DHT22;13371;52.080;5.624;2022-11-30T09:31:15;9.40;99.90
25450;DHT22;13371;52.080;5.624;2022-11-30T09:33:42;9.30;99.90
25450;DHT22;13371;52.080;5.624;2022-11-30T09:36:10;9.50;99.90
25450;DHT22;13371;52.080;5.624;2022-11-30T09:38:37;9.40;99.90
25450;DHT22;13371;52.080;5.624;2022-11-30T09:41:09;9.40;99.90
25450;DHT22;13371;52.080;5.624;2022-11-30T09:43:50;9.70;99.90
25450;DHT22;13371;52.080;5.624;2022-11-30T09:46:23;10.20;99.90
25450;DHT22;13371;52.080;5.624;2022-11-30T09:48:52;11.10;99.90
25450;DHT22;13371;52.080;5.624;2022-11-30T09:51:25;11.90;99.90
25450;DHT22;13371;52.080;5.624;2022-11-30T09:54:01;12.60;99.50
25450;DHT22;13371;52.080;5.624;2022-11-30T09:56:35;13.30;97.50
25450;DHT22;13371;52.080;5.624;2022-11-30T09:59:23;13.80;96.30
25450;DHT22;13371;52.080;5.624;2022-11-30T10:01:51;14.40;95.70
25450;DHT22;13371;52.080;5.624;2022-11-30T10:04:27;14.50;93.50
25450;DHT22;13371;52.080;5.624;2022-11-30T10:12:52;15.50;91.20
25450;DHT22;13371;52.080;5.624;2022-11-30T10:15:30;15.40;91.70
25450;DHT22;13371;52.080;5.624;2022-11-30T10:20:57;16.10;90.40
25450;DHT22;13371;52.080;5.624;2022-11-30T10:26:08;15.90;89.60
25450;DHT22;13371;52.080;5.624;2022-11-30T10:28:49;15.70;90.20
25450;DHT22;13371;52.080;5.624;2022-11-30T10:31:17;15.40;90.80
25450;DHT22;13371;52.080;5.624;2022-11-30T10:33:51;15.50;91.40
25450;DHT22;13371;52.080;5.624;2022-11-30T10:36:34;15.40;91.10
25450;DHT22;13371;52.080;5.624;2022-11-30T10:39:05;15.20;90.90
25450;DHT22;13371;52.080;5.624;2022-11-30T10:41:35;15.60;91.80
25450;DHT22;13371;52.080;5.624;2022-11-30T10:44:24;15.60;90.70
25450;DHT22;13371;52.080;5.624;2022-11-30T10:47:05;15.50;91.30
25450;DHT22;13371;52.080;5.624;2022-11-30T10:49:35;15.50;91.30
25450;DHT22;13371;52.080;5.624;2022-11-30T10:52:04;15.50;91.10
25450;DHT22;13371;52.080;5.624;2022-11-30T10:54:31;15.50;91.40
25450;DHT22;13371;52.080;5.624;2022-11-30T10:57:01;15.10;90.50
25450;DHT22;13371;52.080;5.624;2022-11-30T10:59:41;15.10;91.60
25450;DHT22;13371;52.080;5.624;2022-11-30T11:02:33;14.40;92.00
25450;DHT22;13371;52.080;5.624;2022-11-30T11:05:27;14.70;92.60
25450;DHT22;13371;52.080;5.624;2022-11-30T11:07:57;14.30;92.80
25450;DHT22;13371;52.080;5.624;2022-11-30T11:12:53;14.90;92.20
25450;DHT22;13371;52.080;5.624;2022-11-30T11:15:28;14.40;92.20
25450;DHT22;13371;52.080;5.624;2022-11-30T11:18:23;14.20;91.90
25450;DHT22;13371;52.080;5.624;2022-11-30T11:23:35;12.90;94.30
25450;DHT22;13371;52.080;5.624;2022-11-30T11:26:03;12.90;95.00
25450;DHT22;13371;52.080;5.624;2022-11-30T11:28:29;12.60;94.40
25450;DHT22;13371;52.080;5.624;2022-11-30T11:30:56;12.40;95.20
25450;DHT22;13371;52.080;5.624;2022-11-30T11:33:27;12.50;95.50
25450;DHT22;13371;52.080;5.624;2022-11-30T11:35:55;12.20;96.10
25450;DHT22;13371;52.080;5.624;2022-11-30T11:38:46;12.20;95.70
25450;DHT22;13371;52.080;5.624;2022-11-30T11:41:30;12.30;96.70
25450;DHT22;13371;52.080;5.624;2022-11-30T11:44:00;12.30;96.00
25450;DHT22;13371;52.080;5.624;2022-11-30T11:46:26;11.80;96.10
25450;DHT22;13371;52.080;5.624;2022-11-30T11:48:59;12.00;96.40
25450;DHT22;13371;52.080;5.624;2022-11-30T11:51:36;11.90;96.30
25450;DHT22;13371;52.080;5.624;2022-11-30T11:57:10;11.90;97.00
25450;DHT22;13371;52.080;5.624;2022-11-30T12:02:33;12.40;96.20
25450;DHT22;13371;52.080;5.624;2022-11-30T12:05:09;12.70;96.10
25450;DHT22;13371;52.080;5.624;2022-11-30T12:10:32;12.60;95.00
25450;DHT22;13371;52.080;5.624;2022-11-30T12:12:59;12.10;95.30
25450;DHT22;13371;52.080;5.624;2022-11-30T12:15:40;11.90;97.00
25450;DHT22;13371;52.080;5.624;2022-11-30T12:18:21;11.80;97.50
25450;DHT22;13371;52.080;5.624;2022-11-30T12:20:51;11.60;97.80
25450;DHT22;13371;52.080;5.624;2022-11-30T12:26:23;11.40;98.60
25450;DHT22;13371;52.080;5.624;2022-11-30T12:45:42;10.30;99.90
25450;DHT22;13371;52.080;5.624;2022-11-30T12:48:23;10.20;99.90
25450;DHT22;13371;52.080;5.624;2022-11-30T12:51:09;9.90;99.90
25450;DHT22;13371;52.080;5.624;2022-11-30T12:54:01;10.20;99.90
25450;DHT22;13371;52.080;5.624;2022-11-30T12:56:42;10.60;99.90
25450;DHT22;13371;52.080;5.624;2022-11-30T12:59:31;10.80;99.40
25450;DHT22;13371;52.080;5.624;2022-11-30T13:05:10;10.90;99.40
25450;DHT22;13371;52.080;5.624;2022-11-30T13:07:45;10.60;99.90
25450;DHT22;13371;52.080;5.624;2022-11-30T13:12:46;10.30;99.90
25450;DHT22;13371;52.080;5.624;2022-11-30T13:15:21;10.40;99.90
25450;DHT22;13371;52.080;5.624;2022-11-30T13:17:48;10.80;99.50
25450;DHT22;13371;52.080;5.624;2022-11-30T13:31:03;10.30;99.90
25450;DHT22;13371;52.080;5.624;2022-11-30T13:35:59;10.80;99.30
25450;DHT22;13371;52.080;5.624;2022-11-30T13:38:27;10.60;98.30
25450;DHT22;13371;52.080;5.624;2022-11-30T13:41:01;10.60;98.70
25450;DHT22;13371;52.080;5.624;2022-11-30T13:43:30;10.90;98.20
25450;DHT22;13371;52.080;5.624;2022-11-30T13:46:18;10.80;97.70
25450;DHT22;13371;52.080;5.624;2022-11-30T13:48:44;10.80;98.30
25450;DHT22;13371;52.080;5.624;2022-11-30T13:51:10;11.20;97.90
25450;DHT22;13371;52.080;5.624;2022-11-30T13:53:37;11.00;97.70
25450;DHT22;13371;52.080;5.624;2022-11-30T13:56:30;10.80;97.40
25450;DHT22;13371;52.080;5.624;2022-11-30T13:59:30;10.50;97.00
25450;DHT22;13371;52.080;5.624;2022-11-30T14:10:33;10.90;97.50
25450;DHT22;13371;52.080;5.624;2022-11-30T14:20:43;11.30;96.40
25450;DHT22;13371;52.080;5.624;2022-11-30T14:23:14;11.10;96.10
25450;DHT22;13371;52.080;5.624;2022-11-30T14:25:46;11.10;96.60
25450;DHT22;13371;52.080;5.624;2022-11-30T14:28:37;10.50;97.10
25450;DHT22;13371;52.080;5.624;2022-11-30T14:31:06;10.30;97.40
25450;DHT22;13371;52.080;5.624;2022-11-30T14:34:14;10.30;97.70
25450;DHT22;13371;52.080;5.624;2022-11-30T14:36:45;10.10;98.30
25450;DHT22;13371;52.080;5.624;2022-11-30T14:41:56;10.40;97.90
25450;DHT22;13371;52.080;5.624;2022-11-30T14:44:21;10.40;98.40
25450;DHT22;13371;52.080;5.624;2022-11-30T14:46:47;10.60;98.40
25450;DHT22;13371;52.080;5.624;2022-11-30T14:49:15;10.70;98.10
25450;DHT22;13371;52.080;5.624;2022-11-30T14:51:45;10.90;97.90
25450;DHT22;13371;52.080;5.624;2022-11-30T14:54:43;11.00;97.80
25450;DHT22;13371;52.080;5.624;2022-11-30T14:57:23;10.60;98.00
25450;DHT22;13371;52.080;5.624;2022-11-30T14:59:53;10.60;98.40
25450;DHT22;13371;52.080;5.624;2022-11-30T15:02:42;10.80;98.30
25450;DHT22;13371;52.080;5.624;2022-11-30T15:05:13;10.90;98.00
25450;DHT22;13371;52.080;5.624;2022-11-30T15:07:40;10.80;97.90
25450;DHT22;13371;52.080;5.624;2022-11-30T15:10:23;10.60;98.40
25450;DHT22;13371;52.080;5.624;2022-11-30T15:12:50;10.40;98.60
25450;DHT22;13371;52.080;5.624;2022-11-30T15:15:21;10.50;98.90
25450;DHT22;13371;52.080;5.624;2022-11-30T15:17:51;10.30;98.90
25450;DHT22;13371;52.080;5.624;2022-11-30T15:20:29;10.40;99.40
25450;DHT22;13371;52.080;5.624;2022-11-30T15:22:59;10.50;99.10
25450;DHT22;13371;52.080;5.624;2022-11-30T15:25:30;10.40;99.40
25450;DHT22;13371;52.080;5.624;2022-11-30T15:27:58;10.40;99.40
25450;DHT22;13371;52.080;5.624;2022-11-30T15:30:24;10.50;99.10
25450;DHT22;13371;52.080;5.624;2022-11-30T15:32:50;10.60;99.00
25450;DHT22;13371;52.080;5.624;2022-11-30T15:35:26;10.50;99.00
25450;DHT22;13371;52.080;5.624;2022-11-30T15:37:52;10.70;98.90
25450;DHT22;13371;52.080;5.624;2022-11-30T15:40:30;10.70;98.70
25450;DHT22;13371;52.080;5.624;2022-11-30T15:42:57;10.80;98.90
25450;DHT22;13371;52.080;5.624;2022-11-30T15:47:56;10.40;99.40
25450;DHT22;13371;52.080;5.624;2022-11-30T15:50:31;10.40;99.00
25450;DHT22;13371;52.080;5.624;2022-11-30T15:53:01;10.50;99.80
25450;DHT22;13371;52.080;5.624;2022-11-30T15:55:46;10.20;99.60
25450;DHT22;13371;52.080;5.624;2022-11-30T16:06:25;9.90;99.90
25450;DHT22;13371;52.080;5.624;2022-11-30T16:08:52;9.60;99.90
25450;DHT22;13371;52.080;5.624;2022-11-30T16:11:19;9.70;99.90
25450;DHT22;13371;52.080;5.624;2022-11-30T16:13:45;9.80;99.90
25450;DHT22;13371;52.080;5.624;2022-11-30T16:16:31;9.60;99.90
25450;DHT22;13371;52.080;5.624;2022-11-30T16:18:57;9.60;99.90
25450;DHT22;13371;52.080;5.624;2022-11-30T16:21:23;9.70;99.90
25450;DHT22;13371;52.080;5.624;2022-11-30T16:23:48;9.40;99.90
25450;DHT22;13371;52.080;5.624;2022-11-30T16:26:16;9.40;99.90
25450;DHT22;13371;52.080;5.624;2022-11-30T16:28:43;9.30;99.90
25450;DHT22;13371;52.080;5.624;2022-11-30T16:31:15;9.50;99.90
25450;DHT22;13371;52.080;5.624;2022-11-30T16:33:41;9.60;99.90
25450;DHT22;13371;52.080;5.624;2022-11-30T16:36:08;9.70;99.90
25450;DHT22;13371;52.080;5.624;2022-11-30T16:38:37;9.70;99.90
25450;DHT22;13371;52.080;5.624;2022-11-30T16:41:13;9.40;99.90
25450;DHT22;13371;52.080;5.624;2022-11-30T16:43:39;9.50;99.90
25450;DHT22;13371;52.080;5.624;2022-11-30T16:46:11;9.40;99.90
25450;DHT22;13371;52.080;5.624;2022-11-30T16:48:37;9.40;99.90
25450;DHT22;13371;52.080;5.624;2022-11-30T16:51:03;9.60;99.90
25450;DHT22;13371;52.080;5.624;2022-11-30T16:53:29;9.90;99.90
25450;DHT22;13371;52.080;5.624;2022-11-30T16:55:54;9.90;99.90
25450;DHT22;13371;52.080;5.624;2022-11-30T16:58:20;10.00;99.90
25450;DHT22;13371;52.080;5.624;2022-11-30T17:00:46;10.00;99.40
25450;DHT22;13371;52.080;5.624;2022-11-30T17:03:21;10.20;99.40
25450;DHT22;13371;52.080;5.624;2022-11-30T17:05:48;10.20;99.30
25450;DHT22;13371;52.080;5.624;2022-11-30T17:08:13;10.30;99.00
25450;DHT22;13371;52.080;5.624;2022-11-30T17:10:39;10.30;98.90
25450;DHT22;13371;52.080;5.624;2022-11-30T17:13:05;10.20;98.90
25450;DHT22;13371;52.080;5.624;2022-11-30T17:15:30;10.20;98.80
25450;DHT22;13371;52.080;5.624;2022-11-30T17:17:56;10.20;98.80
25450;DHT22;13371;52.080;5.624;2022-11-30T17:20:24;10.30;98.60
25450;DHT22;13371;52.080;5.624;2022-11-30T17:22:51;10.30;98.50
25450;DHT22;13371;52.080;5.624;2022-11-30T17:25:21;10.30;98.40
25450;DHT22;13371;52.080;5.624;2022-11-30T17:27:47;10.30;98.10
25450;DHT22;13371;52.080;5.624;2022-11-30T17:30:15;10.20;97.90
25450;DHT22;13371;52.080;5.624;2022-11-30T17:32:41;10.30;98.00
25450;DHT22;13371;52.080;5.624;2022-11-30T17:35:07;10.40;97.80
25450;DHT22;13371;52.080;5.624;2022-11-30T17:37:33;10.50;97.60
25450;DHT22;13371;52.080;5.624;2022-11-30T17:39:59;10.40;97.50